Time;durP1;ratioP1;P1;durP2;ratioP2;P2;SDS_P1;SDS_P2;PMS_P1;PMS_P2;Temp;Humidity;BMP_temperature;BMP_pressure;BME280_temperature;BME280_humidity;BME280_pressure;Samples;Min_cycle;Max_cycle;Signal;HPM_P1;HPM_P2
2023/07/08 00:00:18;;;;;;;10.43;4.70;;;20.70;99.90;;;;;;5010121;28;20030;-69
2023/07/08 00:02:44;;;;;;;13.40;4.50;;;20.60;99.90;;;;;;5010980;28;20105;-68
2023/07/08 00:05:12;;;;;;;9.20;4.32;;;20.70;99.90;;;;;;5011206;28;20042;-70
2023/07/08 00:07:39;;;;;;;8.27;3.65;;;20.60;99.90;;;;;;5010881;28;20125;-68
2023/07/08 00:10:21;;;;;;;8.40;3.80;;;20.60;99.90;;;;;;5011239;28;20030;-68
2023/07/08 00:12:57;;;;;;;8.55;3.70;;;20.60;99.90;;;;;;5011067;28;20037;-69
2023/07/08 00:15:34;;;;;;;8.05;3.60;;;20.50;99.90;;;;;;5010488;28;20509;-68
2023/07/08 00:18:00;;;;;;;9.77;3.90;;;20.50;99.90;;;;;;5010814;28;20034;-69
2023/07/08 00:20:41;;;;;;;8.70;4.10;;;20.40;99.90;;;;;;5009335;28;20064;-67
2023/07/08 00:23:09;;;;;;;9.35;4.05;;;20.40;99.90;;;;;;5010746;28;20125;-68
2023/07/08 00:25:35;;;;;;;9.90;4.10;;;20.40;99.90;;;;;;5009951;28;20060;-68
2023/07/08 00:28:00;;;;;;;8.85;4.45;;;20.30;99.90;;;;;;5010587;28;20050;-69
2023/07/08 00:30:30;;;;;;;9.35;4.10;;;20.30;99.90;;;;;;5009012;28;20049;-69
2023/07/08 00:32:56;;;;;;;6.00;3.80;;;20.30;99.90;;;;;;5010247;28;20052;-69
2023/07/08 00:35:30;;;;;;;7.65;3.97;;;20.20;99.90;;;;;;5010486;28;20041;-67
2023/07/08 00:38:02;;;;;;;9.35;4.13;;;20.20;99.90;;;;;;5010252;28;20030;-68
2023/07/08 00:40:32;;;;;;;13.10;4.45;;;20.20;99.90;;;;;;5010351;28;20033;-68
2023/07/08 00:43:05;;;;;;;9.00;4.35;;;20.10;99.90;;;;;;5008932;28;20038;-69
2023/07/08 00:45:45;;;;;;;11.30;4.32;;;20.10;99.90;;;;;;5010090;28;20426;-68
2023/07/08 00:48:24;;;;;;;9.95;4.88;;;20.10;99.90;;;;;;5010097;28;20053;-68
2023/07/08 00:50:51;;;;;;;10.45;4.43;;;20.00;99.90;;;;;;5010255;28;20493;-68
2023/07/08 00:53:24;;;;;;;8.23;4.30;;;20.00;99.90;;;;;;5010157;28;20416;-68
2023/07/08 00:55:53;;;;;;;7.80;4.60;;;20.00;99.90;;;;;;5010232;28;20034;-68
2023/07/08 00:58:20;;;;;;;8.75;4.15;;;19.90;99.90;;;;;;5010098;28;20041;-67
2023/07/08 01:00:46;;;;;;;8.88;4.45;;;19.90;99.90;;;;;;5009884;28;20455;-68
2023/07/08 01:03:11;;;;;;;8.82;3.88;;;19.90;99.90;;;;;;5012721;28;20114;-67
2023/07/08 01:05:38;;;;;;;9.40;5.22;;;19.80;99.90;;;;;;5011428;28;20085;-69
2023/07/08 01:08:06;;;;;;;9.00;4.35;;;19.90;99.90;;;;;;5012656;28;20394;-68
2023/07/08 01:10:38;;;;;;;9.90;4.13;;;19.80;99.90;;;;;;5013109;28;20026;-68
2023/07/08 01:13:07;;;;;;;;;;;19.70;99.90;;;;;;5013221;28;20029;-67
2023/07/08 01:15:40;;;;;;;8.95;4.45;;;19.70;99.90;;;;;;5012594;28;19990;-69
2023/07/08 01:18:06;;;;;;;9.88;3.90;;;19.70;99.90;;;;;;5012736;28;20029;-69
2023/07/08 01:20:32;;;;;;;8.00;4.00;;;19.60;99.90;;;;;;5012569;28;20033;-68
2023/07/08 01:22:58;;;;;;;8.45;4.88;;;19.60;99.90;;;;;;5012907;28;20428;-68
2023/07/08 01:25:23;;;;;;;7.88;4.43;;;19.60;99.90;;;;;;5012093;28;20050;-67
2023/07/08 01:27:54;;;;;;;7.97;4.45;;;19.60;99.90;;;;;;5012577;28;20037;-67
2023/07/08 01:30:19;;;;;;;10.63;4.32;;;19.50;99.90;;;;;;5012444;28;20497;-67
2023/07/08 01:32:49;;;;;;;10.43;4.78;;;19.50;99.90;;;;;;5012173;28;20030;-67
2023/07/08 01:35:15;;;;;;;10.80;4.30;;;19.50;99.90;;;;;;5012471;28;20030;-69
2023/07/08 01:37:53;;;;;;;9.80;4.55;;;19.50;99.90;;;;;;5011950;28;20355;-68
2023/07/08 01:40:30;;;;;;;10.55;4.60;;;19.40;99.90;;;;;;5012534;28;20091;-67
2023/07/08 01:42:57;;;;;;;7.78;3.67;;;19.40;99.90;;;;;;5012243;28;20080;-68
2023/07/08 01:45:25;;;;;;;8.70;4.75;;;19.40;99.90;;;;;;5011675;28;20032;-69
2023/07/08 01:47:56;;;;;;;11.48;4.50;;;19.40;99.90;;;;;;4994442;28;20034;-69
2023/07/08 01:50:24;;;;;;;7.07;4.10;;;19.30;99.90;;;;;;4992825;28;20094;-68
2023/07/08 01:52:52;;;;;;;10.73;5.00;;;19.30;99.90;;;;;;4992330;28;20026;-69
2023/07/08 01:55:22;;;;;;;6.60;3.97;;;19.30;99.90;;;;;;4991644;28;20054;-68
2023/07/08 01:57:50;;;;;;;8.95;4.28;;;19.30;99.90;;;;;;4992722;28;20553;-69
2023/07/08 02:00:15;;;;;;;11.82;4.50;;;19.30;99.90;;;;;;4992511;28;20105;-68
2023/07/08 02:02:41;;;;;;;9.85;4.47;;;19.20;99.90;;;;;;4992630;28;20109;-68
2023/07/08 02:05:07;;;;;;;9.18;4.90;;;19.20;99.90;;;;;;4992723;28;20098;-68
2023/07/08 02:07:32;;;;;;;12.05;4.63;;;19.20;99.90;;;;;;4992404;28;20077;-66
2023/07/08 02:09:58;;;;;;;9.77;4.97;;;19.10;99.90;;;;;;4992080;28;20038;-68
2023/07/08 02:12:23;;;;;;;10.13;4.97;;;19.10;99.90;;;;;;4992180;28;20448;-69
2023/07/08 02:14:49;;;;;;;10.57;4.60;;;19.10;99.90;;;;;;4992775;28;20089;-69
2023/07/08 02:17:16;;;;;;;9.52;5.45;;;19.10;99.90;;;;;;4992150;28;20057;-68
2023/07/08 02:19:43;;;;;;;10.02;5.05;;;19.10;99.90;;;;;;4992509;28;20110;-69
2023/07/08 02:22:08;;;;;;;9.52;4.88;;;19.00;99.90;;;;;;4992422;28;20038;-69
2023/07/08 02:24:34;;;;;;;12.63;4.80;;;19.00;99.90;;;;;;4991898;28;20062;-67
2023/07/08 02:26:59;;;;;;;8.95;5.10;;;19.00;99.90;;;;;;4992212;28;20042;-69
2023/07/08 02:29:26;;;;;;;11.45;5.30;;;19.00;99.90;;;;;;4992166;28;20084;-69
2023/07/08 02:31:51;;;;;;;10.48;4.95;;;19.00;99.90;;;;;;4992488;28;20030;-69
2023/07/08 02:34:17;;;;;;;11.32;5.45;;;19.00;99.90;;;;;;4991502;28;20033;-68
2023/07/08 02:36:43;;;;;;;10.32;4.70;;;18.90;99.90;;;;;;4992346;28;20066;-69
2023/07/08 02:39:10;;;;;;;10.25;4.72;;;18.90;99.90;;;;;;4990680;28;20397;-70
2023/07/08 02:41:36;;;;;;;9.18;4.60;;;18.90;99.90;;;;;;4990521;28;20033;-69
2023/07/08 02:44:02;;;;;;;10.10;5.00;;;18.90;99.90;;;;;;4991823;28;20037;-69
2023/07/08 02:46:28;;;;;;;8.10;5.13;;;18.80;99.90;;;;;;4992117;28;20038;-69
2023/07/08 02:48:54;;;;;;;8.82;4.97;;;18.80;99.90;;;;;;4992545;28;20070;-68
2023/07/08 02:51:19;;;;;;;15.07;4.85;;;18.80;99.90;;;;;;4991993;28;20446;-68
2023/07/08 02:53:45;;;;;;;8.20;4.80;;;18.80;99.90;;;;;;4991979;28;20390;-69
2023/07/08 02:56:10;;;;;;;9.02;5.15;;;18.70;99.90;;;;;;4992175;28;20384;-69
2023/07/08 02:58:36;;;;;;;8.27;4.93;;;18.70;99.90;;;;;;4995589;28;20048;-68
2023/07/08 03:01:02;;;;;;;9.32;4.82;;;18.70;99.90;;;;;;4995614;28;20437;-69
2023/07/08 03:03:31;;;;;;;9.57;4.97;;;18.70;99.90;;;;;;4995644;28;20027;-69
2023/07/08 03:05:57;;;;;;;8.75;4.85;;;18.60;99.90;;;;;;4995101;28;20138;-68
2023/07/08 03:08:22;;;;;;;9.95;5.15;;;18.60;99.90;;;;;;4995292;28;20046;-68
2023/07/08 03:10:53;;;;;;;8.05;4.65;;;18.60;99.90;;;;;;4995388;28;20034;-69
2023/07/08 03:13:19;;;;;;;7.78;4.88;;;18.50;99.90;;;;;;4995559;28;20038;-69
2023/07/08 03:15:45;;;;;;;10.20;4.88;;;18.50;99.90;;;;;;4995482;28;20038;-70
2023/07/08 03:18:11;;;;;;;10.85;5.72;;;18.50;99.90;;;;;;4995283;28;20109;-69
2023/07/08 03:20:39;;;;;;;11.85;5.32;;;18.50;99.90;;;;;;4995273;28;20102;-70
2023/07/08 03:23:05;;;;;;;11.88;5.22;;;18.50;99.90;;;;;;4995312;28;20041;-70
2023/07/08 03:25:30;;;;;;;10.77;5.07;;;18.40;99.90;;;;;;4995247;28;20058;-69
2023/07/08 03:27:57;;;;;;;10.43;5.38;;;18.40;99.90;;;;;;4995160;28;20120;-70
2023/07/08 03:30:23;;;;;;;11.57;5.45;;;18.40;99.90;;;;;;4995151;28;20379;-69
2023/07/08 03:32:48;;;;;;;9.75;5.03;;;18.40;99.90;;;;;;4995124;28;20041;-68
2023/07/08 03:35:14;;;;;;;9.35;4.90;;;18.40;99.90;;;;;;4994764;28;20039;-68
2023/07/08 03:37:39;;;;;;;12.05;5.78;;;18.40;99.90;;;;;;4994746;28;20080;-69
2023/07/08 03:40:09;;;;;;;9.82;5.53;;;18.40;99.90;;;;;;4994487;28;20034;-69
2023/07/08 03:42:35;;;;;;;11.93;5.30;;;18.40;99.90;;;;;;4994852;28;20034;-69
2023/07/08 03:45:00;;;;;;;9.18;5.40;;;18.40;99.90;;;;;;4985661;28;20383;-69
2023/07/08 03:47:26;;;;;;;13.52;5.90;;;18.40;99.90;;;;;;4987401;28;20039;-70
2023/07/08 03:49:51;;;;;;;9.77;5.10;;;18.40;99.90;;;;;;4984207;28;20459;-69
2023/07/08 03:52:17;;;;;;;9.70;4.93;;;18.40;99.90;;;;;;4983379;28;20117;-69
2023/07/08 03:54:44;;;;;;;12.50;5.55;;;18.40;99.90;;;;;;4985259;28;20023;-70
2023/07/08 03:57:09;;;;;;;10.63;5.78;;;18.40;99.90;;;;;;4984145;28;20093;-70
2023/07/08 03:59:35;;;;;;;11.40;5.78;;;18.40;99.90;;;;;;4982348;28;20387;-69
2023/07/08 04:02:01;;;;;;;10.40;5.60;;;18.40;99.90;;;;;;4984967;28;20026;-69
2023/07/08 04:04:26;;;;;;;10.43;5.63;;;18.40;99.90;;;;;;4983337;28;20111;-69
2023/07/08 04:06:53;;;;;;;11.15;5.57;;;18.40;99.90;;;;;;4984254;28;20041;-68
2023/07/08 04:09:18;;;;;;;8.65;5.18;;;18.40;99.90;;;;;;4984967;28;20132;-68
2023/07/08 04:11:44;;;;;;;9.10;5.00;;;18.40;99.90;;;;;;4982690;28;20107;-69
2023/07/08 04:14:10;;;;;;;9.57;5.43;;;18.50;99.90;;;;;;4984623;28;20430;-69
2023/07/08 04:16:47;;;;;;;10.25;5.95;;;18.50;99.90;;;;;;4985182;28;20042;-69
2023/07/08 04:19:14;;;;;;;10.15;5.32;;;18.50;99.90;;;;;;4985241;28;20463;-68
2023/07/08 04:21:42;;;;;;;12.68;5.75;;;18.50;99.90;;;;;;4985453;28;20023;-69
2023/07/08 04:24:15;;;;;;;11.40;5.63;;;18.60;99.90;;;;;;4983593;28;20125;-70
2023/07/08 04:26:47;;;;;;;12.40;6.00;;;18.50;99.90;;;;;;4985855;28;20026;-71
2023/07/08 04:29:16;;;;;;;10.93;5.43;;;18.60;99.90;;;;;;4983771;28;20022;-70
2023/07/08 04:31:42;;;;;;;10.65;5.43;;;18.60;99.90;;;;;;4984816;28;20030;-69
2023/07/08 04:34:09;;;;;;;10.85;5.53;;;18.70;99.90;;;;;;4983961;28;20101;-69
2023/07/08 04:36:35;;;;;;;10.18;5.35;;;18.70;99.90;;;;;;4983707;28;20034;-69
2023/07/08 04:39:01;;;;;;;12.35;5.05;;;18.70;99.90;;;;;;4984640;28;20109;-69
2023/07/08 04:41:27;;;;;;;11.55;5.47;;;18.80;99.90;;;;;;4983369;28;20038;-69
2023/07/08 04:43:53;;;;;;;11.05;5.25;;;18.80;99.90;;;;;;4983238;28;20026;-68
2023/07/08 04:46:36;;;;;;;8.90;5.05;;;18.90;99.90;;;;;;4984967;28;20034;-69
2023/07/08 04:49:03;;;;;;;8.98;5.40;;;19.00;99.90;;;;;;4984818;28;20109;-69
2023/07/08 04:51:29;;;;;;;9.20;5.38;;;19.10;99.90;;;;;;4983787;28;20044;-69
2023/07/08 04:53:55;;;;;;;8.85;5.20;;;19.10;99.90;;;;;;4983148;28;20045;-70
2023/07/08 04:56:22;;;;;;;13.05;4.97;;;19.20;99.90;;;;;;4984240;28;20509;-69
2023/07/08 04:58:48;;;;;;;12.95;5.70;;;19.30;99.90;;;;;;4983474;28;20033;-69
2023/07/08 05:01:13;;;;;;;9.65;5.47;;;19.30;99.90;;;;;;4983308;28;20022;-68
2023/07/08 05:03:39;;;;;;;10.07;5.18;;;19.40;99.90;;;;;;4984592;28;20030;-69
2023/07/08 05:06:04;;;;;;;9.15;4.90;;;19.50;99.90;;;;;;4983068;28;20034;-70
2023/07/08 05:08:30;;;;;;;11.35;5.03;;;19.60;99.90;;;;;;4983437;28;20409;-69
2023/07/08 05:10:55;;;;;;;11.10;5.30;;;19.70;99.90;;;;;;4984193;28;20387;-69
2023/07/08 05:13:22;;;;;;;10.18;5.03;;;19.80;99.90;;;;;;4982246;28;20026;-68
2023/07/08 05:15:48;;;;;;;9.48;4.90;;;19.90;99.90;;;;;;4983868;28;20015;-69
2023/07/08 05:18:13;;;;;;;10.80;5.50;;;20.00;99.90;;;;;;4983856;28;20475;-70
2023/07/08 05:20:39;;;;;;;12.32;6.18;;;20.10;99.90;;;;;;4981489;28;20113;-69
2023/07/08 05:23:05;;;;;;;10.48;5.68;;;20.20;99.90;;;;;;4986390;28;20050;-68
2023/07/08 05:25:34;;;;;;;11.05;5.15;;;20.30;99.90;;;;;;4983144;28;20085;-69
2023/07/08 05:28:00;;;;;;;11.07;5.30;;;20.50;99.90;;;;;;4983988;28;20038;-69
2023/07/08 05:30:26;;;;;;;12.63;5.07;;;20.60;99.90;;;;;;4982381;28;20037;-69
2023/07/08 05:32:52;;;;;;;12.27;5.43;;;20.80;99.90;;;;;;4983313;28;20030;-69
2023/07/08 05:35:18;;;;;;;10.23;4.97;;;21.10;99.90;;;;;;4984113;28;20074;-69
2023/07/08 05:37:46;;;;;;;8.38;4.50;;;21.40;99.90;;;;;;4984445;28;20387;-69
2023/07/08 05:40:12;;;;;;;9.85;4.75;;;21.80;99.90;;;;;;4982622;28;20455;-68
2023/07/08 05:42:38;;;;;;;9.93;4.70;;;22.30;99.90;;;;;;4983937;28;20121;-69
2023/07/08 05:45:06;;;;;;;10.30;4.22;;;22.80;99.90;;;;;;4981877;28;20031;-68
2023/07/08 05:47:32;;;;;;;9.07;4.72;;;23.30;99.90;;;;;;4982651;28;20050;-69
2023/07/08 05:49:57;;;;;;;6.57;3.95;;;23.70;99.90;;;;;;4983972;28;20027;-69
2023/07/08 05:52:23;;;;;;;10.15;5.00;;;24.30;99.90;;;;;;4982193;28;20041;-69
2023/07/08 05:54:48;;;;;;;7.75;4.45;;;24.90;98.70;;;;;;4983139;28;20034;-71
2023/07/08 05:57:14;;;;;;;7.90;4.55;;;25.40;98.10;;;;;;4983318;28;20030;-69
2023/07/08 05:59:39;;;;;;;9.07;4.50;;;26.10;97.10;;;;;;4981800;28;20460;-70
2023/07/08 06:02:06;;;;;;;9.45;5.10;;;26.70;96.10;;;;;;4983777;28;20422;-68
2023/07/08 06:04:32;;;;;;;8.25;4.70;;;27.20;95.10;;;;;;4982947;28;20074;-69
2023/07/08 06:06:58;;;;;;;9.18;4.45;;;27.80;94.30;;;;;;4982236;28;20058;-69
2023/07/08 06:09:23;;;;;;;10.85;4.85;;;28.40;93.40;;;;;;4983700;28;20471;-68
2023/07/08 06:11:49;;;;;;;13.40;5.10;;;29.00;92.60;;;;;;4982657;28;20472;-69
2023/07/08 06:14:15;;;;;;;8.85;4.65;;;29.50;91.60;;;;;;4982281;28;20026;-69
2023/07/08 06:16:40;;;;;;;8.65;4.30;;;29.90;91.00;;;;;;4983870;28;20034;-69
2023/07/08 06:19:06;;;;;;;10.10;4.88;;;30.40;90.30;;;;;;4982069;28;20498;-69
2023/07/08 06:21:32;;;;;;;8.88;4.60;;;30.80;89.50;;;;;;4982572;28;20030;-69
2023/07/08 06:23:58;;;;;;;8.95;4.85;;;31.10;87.80;;;;;;4983013;28;20046;-69
2023/07/08 06:26:24;;;;;;;11.05;5.30;;;31.40;86.90;;;;;;4981494;28;20086;-69
2023/07/08 06:28:50;;;;;;;8.82;4.75;;;31.50;85.90;;;;;;4982929;28;20023;-69
2023/07/08 06:31:15;;;;;;;8.77;4.82;;;31.60;85.70;;;;;;4983161;28;20034;-69
2023/07/08 06:33:42;;;;;;;9.50;4.22;;;31.80;84.90;;;;;;4985407;28;20356;-69
2023/07/08 06:36:07;;;;;;;7.53;4.50;;;32.30;83.90;;;;;;4986992;28;20061;-69
2023/07/08 06:38:33;;;;;;;8.27;4.45;;;32.60;83.50;;;;;;4986168;28;20065;-69
2023/07/08 06:40:59;;;;;;;11.90;4.53;;;32.90;82.50;;;;;;4985555;28;20041;-68
2023/07/08 06:43:24;;;;;;;8.25;4.32;;;33.10;81.60;;;;;;4987909;28;20037;-69
2023/07/08 06:45:50;;;;;;;12.48;4.40;;;33.40;80.70;;;;;;4986098;28;20026;-69
2023/07/08 06:48:16;;;;;;;11.88;4.95;;;33.60;80.10;;;;;;4986656;28;20464;-68
2023/07/08 06:50:45;;;;;;;11.90;4.88;;;33.80;79.80;;;;;;4984757;28;20089;-68
2023/07/08 06:53:10;;;;;;;9.15;5.25;;;34.10;78.80;;;;;;4985939;28;20030;-69
2023/07/08 06:55:36;;;;;;;8.40;4.45;;;34.30;78.20;;;;;;4986697;28;20109;-69
2023/07/08 06:58:02;;;;;;;8.63;4.15;;;34.70;77.70;;;;;;4984867;28;20023;-69
2023/07/08 07:00:27;;;;;;;8.43;4.78;;;35.10;76.80;;;;;;4986374;28;20352;-69
2023/07/08 07:02:53;;;;;;;8.32;4.53;;;35.40;76.00;;;;;;4985734;28;20022;-69
2023/07/08 07:05:18;;;;;;;8.10;4.95;;;35.80;75.40;;;;;;4984822;28;20765;-70
2023/07/08 07:07:44;;;;;;;9.60;4.85;;;36.00;74.50;;;;;;4986638;28;20144;-68
2023/07/08 07:10:10;;;;;;;9.57;4.70;;;36.10;73.80;;;;;;4985458;28;20031;-69
2023/07/08 07:12:35;;;;;;;8.73;4.50;;;36.00;73.40;;;;;;4985014;28;20034;-69
2023/07/08 07:15:01;;;;;;;7.03;3.88;;;35.90;73.50;;;;;;4986548;28;20022;-69
2023/07/08 07:17:27;;;;;;;8.02;3.95;;;35.90;73.40;;;;;;4984927;28;20035;-68
2023/07/08 07:19:53;;;;;;;9.55;3.88;;;36.00;73.30;;;;;;4985691;28;20053;-68
2023/07/08 07:22:19;;;;;;;10.38;4.78;;;36.10;72.40;;;;;;4985699;28;20363;-69
2023/07/08 07:24:44;;;;;;;8.63;4.18;;;36.20;72.30;;;;;;4976043;28;20051;-69
2023/07/08 07:27:10;;;;;;;7.93;4.28;;;36.20;72.40;;;;;;4976147;28;20042;-69
2023/07/08 07:29:45;;;;;;;9.27;4.20;;;36.10;72.00;;;;;;4975822;28;20106;-69
2023/07/08 07:32:12;;;;;;;9.55;4.88;;;36.00;72.40;;;;;;4976131;28;20037;-68
2023/07/08 07:34:39;;;;;;;8.20;4.80;;;36.00;72.30;;;;;;4975906;28;20122;-68
2023/07/08 07:37:06;;;;;;;9.00;4.90;;;35.90;72.60;;;;;;4974866;28;20062;-68
2023/07/08 07:39:32;;;;;;;7.50;4.40;;;35.90;72.40;;;;;;4975883;28;20532;-68
2023/07/08 07:41:57;;;;;;;10.43;5.20;;;35.80;72.20;;;;;;4975796;28;20073;-68
2023/07/08 07:44:24;;;;;;;12.25;4.50;;;35.70;72.10;;;;;;4974468;28;20038;-68
2023/07/08 07:46:51;;;;;;;8.63;4.25;;;35.70;72.60;;;;;;4975733;28;20070;-69
2023/07/08 07:49:17;;;;;;;12.35;5.00;;;35.80;72.60;;;;;;4975673;28;20043;-69
2023/07/08 07:51:42;;;;;;;12.52;5.22;;;36.00;72.30;;;;;;4975330;28;20037;-69
2023/07/08 07:54:08;;;;;;;9.32;4.60;;;36.00;72.40;;;;;;4975378;28;20046;-69
2023/07/08 07:56:33;;;;;;;9.70;4.35;;;35.70;72.30;;;;;;4975473;28;20030;-69
2023/07/08 07:58:59;;;;;;;9.48;4.75;;;35.50;72.40;;;;;;4975700;28;20054;-69
2023/07/08 08:01:24;;;;;;;11.02;5.05;;;35.10;73.10;;;;;;4975854;28;20026;-69
2023/07/08 08:03:50;;;;;;;10.05;5.30;;;34.70;73.60;;;;;;4975779;28;20023;-69
2023/07/08 08:06:17;;;;;;;10.18;5.13;;;34.20;74.20;;;;;;4975379;28;20105;-69
2023/07/08 08:08:44;;;;;;;9.18;5.07;;;33.70;75.10;;;;;;4985206;28;20039;-67
2023/07/08 08:11:09;;;;;;;9.60;5.20;;;33.20;76.00;;;;;;4993723;28;20419;-68
2023/07/08 08:13:35;;;;;;;10.35;4.55;;;32.90;76.90;;;;;;4994325;28;20085;-69
2023/07/08 08:16:01;;;;;;;11.98;5.80;;;32.90;77.10;;;;;;4993861;28;20084;-68
2023/07/08 08:18:27;;;;;;;10.52;5.28;;;33.10;77.10;;;;;;4997793;28;20036;-68
2023/07/08 08:20:52;;;;;;;8.70;4.70;;;33.30;76.90;;;;;;5004119;28;20104;-69
2023/07/08 08:23:18;;;;;;;11.48;5.13;;;33.60;76.60;;;;;;5003714;28;20085;-69
2023/07/08 08:25:44;;;;;;;14.95;5.35;;;34.20;75.90;;;;;;5004717;28;20050;-69
2023/07/08 08:28:09;;;;;;;10.77;5.15;;;34.70;75.40;;;;;;5013710;28;20371;-69
2023/07/08 08:30:35;;;;;;;13.52;5.60;;;35.30;74.20;;;;;;5014239;28;20474;-69
2023/07/08 08:33:01;;;;;;;9.27;5.30;;;35.90;73.90;;;;;;5013361;28;20034;-68
2023/07/08 08:35:27;;;;;;;12.15;5.03;;;36.50;72.20;;;;;;4994225;28;20057;-68
2023/07/08 08:37:53;;;;;;;10.20;4.95;;;37.10;71.50;;;;;;4994194;28;20023;-68
2023/07/08 08:40:20;;;;;;;10.55;4.63;;;37.80;71.20;;;;;;4994153;28;20041;-69
2023/07/08 08:43:04;;;;;;;12.27;4.97;;;38.70;70.70;;;;;;4994424;28;20030;-69
2023/07/08 08:45:36;;;;;;;8.57;5.10;;;39.80;68.80;;;;;;4974760;28;20034;-68
2023/07/08 08:48:05;;;;;;;14.00;6.25;;;40.60;67.70;;;;;;4974429;28;20042;-69
2023/07/08 08:50:43;;;;;;;10.95;5.43;;;41.40;66.30;;;;;;4982114;28;20373;-69
2023/07/08 08:53:12;;;;;;;10.30;5.43;;;41.90;65.10;;;;;;5013438;28;20454;-69
2023/07/08 08:55:38;;;;;;;9.63;4.68;;;42.20;64.30;;;;;;5011777;28;20042;-69
2023/07/08 08:58:30;;;;;;;8.93;4.40;;;42.50;63.60;;;;;;4997892;28;20030;-69
2023/07/08 09:01:02;;;;;;;8.00;4.35;;;42.80;63.40;;;;;;4983762;28;20030;-69
2023/07/08 09:03:53;;;;;;;7.65;4.38;;;43.20;62.50;;;;;;4993978;28;20472;-69
2023/07/08 09:06:32;;;;;;;6.38;3.88;;;43.70;61.90;;;;;;4993895;28;20042;-68
2023/07/08 09:09:03;;;;;;;9.38;3.40;;;44.30;60.50;;;;;;4974005;28;20137;-69
2023/07/08 09:11:44;;;;;;;5.95;3.67;;;44.30;59.50;;;;;;4974333;28;20030;-69
2023/07/08 09:14:15;;;;;;;7.47;3.70;;;44.70;59.70;;;;;;4974497;28;20121;-70
2023/07/08 09:17:07;;;;;;;8.63;3.50;;;45.00;58.60;;;;;;4989979;28;20026;-68
2023/07/08 09:19:39;;;;;;;7.38;4.10;;;45.20;58.00;;;;;;4993435;28;20038;-69
2023/07/08 09:22:14;;;;;;;7.07;3.58;;;45.40;57.60;;;;;;4993561;28;20034;-69
2023/07/08 09:24:46;;;;;;;5.43;3.72;;;45.50;57.60;;;;;;4993548;28;20107;-68
2023/07/08 09:27:11;;;;;;;7.05;3.60;;;45.50;56.60;;;;;;4993456;28;20038;-68
2023/07/08 09:29:37;;;;;;;5.43;3.65;;;45.50;56.90;;;;;;4992866;28;20041;-68
2023/07/08 09:32:22;;;;;;;8.85;4.30;;;45.80;56.30;;;;;;4993420;28;20471;-68
2023/07/08 09:34:54;;;;;;;7.40;4.30;;;46.00;56.10;;;;;;4993286;28;20022;-70
2023/07/08 09:37:28;;;;;;;8.77;4.20;;;46.10;56.10;;;;;;4993135;28;20097;-68
2023/07/08 09:39:55;;;;;;;8.88;3.72;;;46.40;55.70;;;;;;4992820;28;20073;-68
2023/07/08 09:42:31;;;;;;;8.15;3.92;;;46.80;55.50;;;;;;4993117;28;20387;-69
2023/07/08 09:45:01;;;;;;;8.35;4.00;;;47.00;54.90;;;;;;4993313;28;20521;-67
2023/07/08 09:47:30;;;;;;;7.78;3.80;;;47.00;54.60;;;;;;4993395;28;20401;-69
2023/07/08 09:49:57;;;;;;;6.18;4.07;;;47.10;54.40;;;;;;4992858;28;20041;-68
2023/07/08 09:52:23;;;;;;;6.90;3.95;;;47.30;53.80;;;;;;4992933;28;20038;-68
2023/07/08 09:54:49;;;;;;;6.93;3.83;;;47.20;53.90;;;;;;4993208;28;20474;-69
2023/07/08 09:57:25;;;;;;;10.15;4.15;;;47.00;54.10;;;;;;4993110;28;20038;-69
2023/07/08 09:59:56;;;;;;;5.65;3.78;;;47.00;54.00;;;;;;4993008;28;20037;-70
2023/07/08 10:02:29;;;;;;;6.60;3.75;;;47.10;53.90;;;;;;4993099;28;20030;-69
2023/07/08 10:04:57;;;;;;;7.50;4.10;;;47.30;53.60;;;;;;4993061;28;20122;-68
2023/07/08 10:07:23;;;;;;;7.13;4.28;;;47.60;53.10;;;;;;4993937;28;20446;-69
2023/07/08 10:09:54;;;;;;;10.05;4.30;;;47.90;52.70;;;;;;4997294;28;20451;-69
2023/07/08 10:12:19;;;;;;;;;;;47.80;52.60;;;;;;4997433;28;20057;-69
2023/07/08 10:14:57;;;;;;;6.53;4.47;;;47.60;53.30;;;;;;4996933;28;20275;-69
2023/07/08 10:17:23;;;;;;;6.60;4.05;;;47.50;52.70;;;;;;4996182;28;20097;-69
2023/07/08 10:19:49;;;;;;;7.18;4.43;;;47.70;52.70;;;;;;4996540;28;20113;-67
2023/07/08 10:22:38;;;;;;;7.28;3.80;;;47.80;52.60;;;;;;4996919;28;20026;-69
2023/07/08 10:25:11;;;;;;;7.05;4.00;;;47.70;52.70;;;;;;4996821;28;20133;-68
2023/07/08 10:27:57;;;;;;;8.32;4.70;;;47.70;52.20;;;;;;4994893;28;20030;-67
2023/07/08 10:30:31;;;;;;;7.43;4.60;;;47.80;52.40;;;;;;4996416;28;20455;-69
2023/07/08 10:33:46;;;;;;;6.57;4.05;;;48.10;52.30;;;;;;4996585;28;20084;-68
2023/07/08 10:36:23;;;;;;;10.00;4.85;;;48.40;52.10;;;;;;4996433;28;20126;-69
2023/07/08 10:39:21;;;;;;;8.35;5.25;;;48.70;51.80;;;;;;4995575;28;20030;-68
2023/07/08 10:42:13;;;;;;;9.93;4.65;;;48.60;51.40;;;;;;4996522;28;20033;-68
2023/07/08 10:45:04;;;;;;;9.60;4.60;;;48.40;51.60;;;;;;4996507;28;20034;-69
2023/07/08 10:48:00;;;;;;;6.43;4.43;;;48.50;51.20;;;;;;4996368;28;20046;-68
2023/07/08 10:50:56;;;;;;;7.47;4.57;;;48.40;51.10;;;;;;4996059;28;20065;-68
2023/07/08 10:53:24;;;;;;;9.85;5.18;;;48.30;51.40;;;;;;4996203;28;20053;-69
2023/07/08 10:56:22;;;;;;;11.27;4.60;;;48.30;50.60;;;;;;4996241;28;20085;-70
2023/07/08 10:59:00;;;;;;;7.20;5.05;;;48.20;51.10;;;;;;4995881;28;20343;-68
2023/07/08 11:01:34;;;;;;;9.32;4.50;;;48.30;51.10;;;;;;4995951;28;20097;-69
2023/07/08 11:04:11;;;;;;;9.40;4.30;;;48.40;50.80;;;;;;4996229;28;20045;-70
2023/07/08 11:06:45;;;;;;;9.70;4.88;;;48.40;50.60;;;;;;4996188;28;20038;-68
2023/07/08 11:09:18;;;;;;;9.25;5.07;;;48.30;50.70;;;;;;4996347;28;20489;-68
2023/07/08 11:11:48;;;;;;;11.25;4.88;;;48.20;50.40;;;;;;4996166;28;20038;-69
2023/07/08 11:14:26;;;;;;;8.25;4.20;;;48.30;50.50;;;;;;4995667;28;20108;-69
2023/07/08 11:17:05;;;;;;;7.10;4.20;;;48.40;50.50;;;;;;4995821;28;20486;-68
2023/07/08 11:19:37;;;;;;;6.05;4.70;;;48.30;50.70;;;;;;4995737;28;20121;-69
2023/07/08 11:22:10;;;;;;;11.27;4.72;;;48.00;51.00;;;;;;4994245;28;20428;-68
2023/07/08 11:24:52;;;;;;;8.85;5.00;;;47.90;51.00;;;;;;4995652;28;20059;-69
2023/07/08 11:27:28;;;;;;;9.00;4.88;;;47.80;52.00;;;;;;4979129;28;20043;-69
2023/07/08 11:30:01;;;;;;;8.65;4.47;;;47.90;51.30;;;;;;4976308;28;20055;-69
2023/07/08 11:32:30;;;;;;;8.77;4.90;;;48.00;51.30;;;;;;4976325;28;20102;-68
2023/07/08 11:34:58;;;;;;;9.32;4.90;;;48.10;51.10;;;;;;4976260;28;20026;-68
2023/07/08 11:37:25;;;;;;;7.18;4.60;;;47.90;51.10;;;;;;4977641;28;20031;-68
2023/07/08 11:40:09;;;;;;;8.63;4.90;;;48.00;51.20;;;;;;4984313;28;20387;-69
2023/07/08 11:42:38;;;;;;;10.80;5.13;;;48.20;51.00;;;;;;4986496;28;20053;-70
2023/07/08 11:45:28;;;;;;;7.20;4.78;;;48.40;51.30;;;;;;4985448;28;20055;-71
2023/07/08 11:48:12;;;;;;;7.73;4.60;;;48.70;51.00;;;;;;4983373;28;20047;-69
2023/07/08 11:50:41;;;;;;;10.60;4.55;;;48.70;51.10;;;;;;4983472;28;20340;-69
2023/07/08 11:53:10;;;;;;;6.47;4.35;;;48.70;51.00;;;;;;4975793;28;20043;-68
2023/07/08 11:56:02;;;;;;;7.75;5.00;;;48.50;51.00;;;;;;4975537;28;20031;-69
2023/07/08 11:58:50;;;;;;;8.98;4.68;;;48.50;51.10;;;;;;4972834;28;20042;-69
2023/07/08 12:01:50;;;;;;;8.68;4.63;;;48.90;50.90;;;;;;4975882;28;20030;-69
2023/07/08 12:04:27;;;;;;;8.45;4.95;;;49.20;50.60;;;;;;4979198;28;20066;-68
2023/07/08 12:07:32;;;;;;;7.45;4.70;;;49.60;50.60;;;;;;4983772;28;20093;-69
2023/07/08 12:10:09;;;;;;;10.25;5.53;;;49.30;49.50;;;;;;4972646;28;20037;-70
2023/07/08 12:12:40;;;;;;;9.73;4.72;;;49.30;49.80;;;;;;4972864;28;20117;-69
2023/07/08 12:15:33;;;;;;;8.95;5.25;;;49.30;50.30;;;;;;4985779;28;20372;-69
2023/07/08 12:18:10;;;;;;;8.23;5.35;;;49.30;49.80;;;;;;4995032;28;20058;-68
2023/07/08 12:20:38;;;;;;;9.60;5.15;;;49.00;50.10;;;;;;4994961;28;20117;-69
2023/07/08 12:23:11;;;;;;;8.15;5.00;;;49.00;50.30;;;;;;4994722;28;20026;-69
2023/07/08 12:25:37;;;;;;;8.77;5.03;;;49.10;50.30;;;;;;4992870;28;20146;-69
2023/07/08 12:28:03;;;;;;;9.45;5.25;;;49.10;50.30;;;;;;4994596;28;20113;-69
2023/07/08 12:30:31;;;;;;;8.93;4.80;;;49.30;50.10;;;;;;4993780;28;20026;-69
2023/07/08 12:32:59;;;;;;;8.00;5.15;;;49.40;49.80;;;;;;4993993;28;20068;-69
2023/07/08 12:35:33;;;;;;;9.40;4.82;;;49.40;49.40;;;;;;4994460;28;20054;-69
2023/07/08 12:38:10;;;;;;;11.68;5.80;;;49.10;49.80;;;;;;4994383;28;20031;-70
2023/07/08 12:40:36;;;;;;;7.93;5.18;;;48.60;49.90;;;;;;4993984;28;20030;-68
2023/07/08 12:43:01;;;;;;;10.10;5.43;;;48.30;50.20;;;;;;5013439;28;20088;-69
2023/07/08 12:45:30;;;;;;;10.93;4.70;;;48.10;50.60;;;;;;5013505;28;20033;-69
2023/07/08 12:47:55;;;;;;;8.57;5.45;;;47.60;50.50;;;;;;5013573;28;20054;-70
2023/07/08 12:50:21;;;;;;;9.27;4.93;;;47.40;50.60;;;;;;5013445;28;20026;-68
2023/07/08 12:52:47;;;;;;;9.48;5.05;;;46.70;50.60;;;;;;5013433;28;20034;-70
2023/07/08 12:55:15;;;;;;;6.85;4.45;;;45.90;51.30;;;;;;5013667;28;20493;-68